sensor_id;sensor_type;location;lat;lon;timestamp;temperature;humidity
1415;DHT22;702;49.466;11.086;2023-11-19T00:02:25;5.60;99.90
1415;DHT22;702;49.466;11.086;2023-11-19T00:04:52;5.50;99.90
1415;DHT22;702;49.466;11.086;2023-11-19T00:07:20;5.60;99.90
1415;DHT22;702;49.466;11.086;2023-11-19T00:09:47;5.60;99.90
1415;DHT22;702;49.466;11.086;2023-11-19T00:12:15;5.60;99.90
1415;DHT22;702;49.466;11.086;2023-11-19T00:14:45;5.60;99.90
1415;DHT22;702;49.466;11.086;2023-11-19T00:17:12;5.60;99.90
1415;DHT22;702;49.466;11.086;2023-11-19T00:19:42;5.60;99.90
1415;DHT22;702;49.466;11.086;2023-11-19T00:22:09;5.50;99.90
1415;DHT22;702;49.466;11.086;2023-11-19T00:24:37;5.60;99.90
1415;DHT22;702;49.466;11.086;2023-11-19T00:27:04;5.60;99.90
1415;DHT22;702;49.466;11.086;2023-11-19T00:29:33;5.60;99.90
1415;DHT22;702;49.466;11.086;2023-11-19T00:32:02;5.70;99.90
1415;DHT22;702;49.466;11.086;2023-11-19T00:34:31;5.70;99.90
1415;DHT22;702;49.466;11.086;2023-11-19T00:36:58;5.70;99.90
1415;DHT22;702;49.466;11.086;2023-11-19T00:39:25;5.70;99.90
1415;DHT22;702;49.466;11.086;2023-11-19T00:41:52;5.80;99.90
1415;DHT22;702;49.466;11.086;2023-11-19T00:44:20;5.80;99.90
1415;DHT22;702;49.466;11.086;2023-11-19T00:46:51;5.80;99.90
1415;DHT22;702;49.466;11.086;2023-11-19T00:49:19;5.80;99.90
1415;DHT22;702;49.466;11.086;2023-11-19T00:51:46;5.80;99.90
1415;DHT22;702;49.466;11.086;2023-11-19T00:54:14;5.80;99.90
1415;DHT22;702;49.466;11.086;2023-11-19T00:56:41;5.80;99.90
1415;DHT22;702;49.466;11.086;2023-11-19T00:59:09;5.80;99.90
1415;DHT22;702;49.466;11.086;2023-11-19T01:01:37;5.80;99.90
1415;DHT22;702;49.466;11.086;2023-11-19T01:04:04;5.90;99.90
1415;DHT22;702;49.466;11.086;2023-11-19T01:06:34;5.90;99.90
1415;DHT22;702;49.466;11.086;2023-11-19T01:09:01;5.80;99.90
1415;DHT22;702;49.466;11.086;2023-11-19T01:11:28;5.90;99.90
1415;DHT22;702;49.466;11.086;2023-11-19T01:13:56;5.90;99.90
1415;DHT22;702;49.466;11.086;2023-11-19T01:16:23;5.90;99.90
1415;DHT22;702;49.466;11.086;2023-11-19T01:18:50;5.90;99.90
1415;DHT22;702;49.466;11.086;2023-11-19T01:21:18;5.90;99.90
1415;DHT22;702;49.466;11.086;2023-11-19T01:23:47;5.90;99.90
1415;DHT22;702;49.466;11.086;2023-11-19T01:26:14;5.90;99.90
1415;DHT22;702;49.466;11.086;2023-11-19T01:28:42;5.90;99.90
1415;DHT22;702;49.466;11.086;2023-11-19T01:31:11;5.90;99.90
1415;DHT22;702;49.466;11.086;2023-11-19T01:33:38;6.00;99.90
1415;DHT22;702;49.466;11.086;2023-11-19T01:36:06;6.00;99.90
1415;DHT22;702;49.466;11.086;2023-11-19T01:38:34;6.00;99.90
1415;DHT22;702;49.466;11.086;2023-11-19T01:41:03;6.00;99.90
1415;DHT22;702;49.466;11.086;2023-11-19T01:43:32;6.00;99.90
1415;DHT22;702;49.466;11.086;2023-11-19T01:46:00;6.10;99.90
1415;DHT22;702;49.466;11.086;2023-11-19T01:48:27;6.10;99.90
1415;DHT22;702;49.466;11.086;2023-11-19T01:50:55;6.00;99.90
1415;DHT22;702;49.466;11.086;2023-11-19T01:53:24;6.00;99.90
1415;DHT22;702;49.466;11.086;2023-11-19T01:55:51;6.10;99.90
1415;DHT22;702;49.466;11.086;2023-11-19T01:58:20;6.10;99.90
1415;DHT22;702;49.466;11.086;2023-11-19T02:00:48;6.10;99.90
1415;DHT22;702;49.466;11.086;2023-11-19T02:03:16;6.10;99.90
1415;DHT22;702;49.466;11.086;2023-11-19T02:05:43;6.10;99.90
1415;DHT22;702;49.466;11.086;2023-11-19T02:08:10;6.10;99.90
1415;DHT22;702;49.466;11.086;2023-11-19T02:10:39;6.00;99.90
1415;DHT22;702;49.466;11.086;2023-11-19T02:13:06;6.10;99.90
1415;DHT22;702;49.466;11.086;2023-11-19T02:15:35;6.10;99.90
1415;DHT22;702;49.466;11.086;2023-11-19T02:18:21;6.10;99.90
1415;DHT22;702;49.466;11.086;2023-11-19T02:20:49;6.10;99.90
1415;DHT22;702;49.466;11.086;2023-11-19T02:23:17;6.20;99.90
1415;DHT22;702;49.466;11.086;2023-11-19T02:25:57;6.20;99.90
1415;DHT22;702;49.466;11.086;2023-11-19T02:28:30;6.20;99.90
1415;DHT22;702;49.466;11.086;2023-11-19T02:30:58;6.20;99.90
1415;DHT22;702;49.466;11.086;2023-11-19T02:33:25;6.30;99.90
1415;DHT22;702;49.466;11.086;2023-11-19T02:35:53;6.20;99.90
1415;DHT22;702;49.466;11.086;2023-11-19T02:38:20;6.20;99.90
1415;DHT22;702;49.466;11.086;2023-11-19T02:40:48;6.20;99.90
1415;DHT22;702;49.466;11.086;2023-11-19T02:43:16;6.30;99.90
1415;DHT22;702;49.466;11.086;2023-11-19T02:45:45;6.30;99.90
1415;DHT22;702;49.466;11.086;2023-11-19T02:48:12;6.30;99.90
1415;DHT22;702;49.466;11.086;2023-11-19T02:50:40;6.30;99.90
1415;DHT22;702;49.466;11.086;2023-11-19T02:53:07;6.30;99.90
1415;DHT22;702;49.466;11.086;2023-11-19T02:55:36;6.30;99.90
1415;DHT22;702;49.466;11.086;2023-11-19T02:58:06;6.30;99.90
1415;DHT22;702;49.466;11.086;2023-11-19T03:00:47;6.30;99.90
1415;DHT22;702;49.466;11.086;2023-11-19T03:03:17;6.30;99.90
1415;DHT22;702;49.466;11.086;2023-11-19T03:05:46;6.30;99.90
1415;DHT22;702;49.466;11.086;2023-11-19T03:08:14;6.30;99.90
1415;DHT22;702;49.466;11.086;2023-11-19T03:10:42;6.30;99.90
1415;DHT22;702;49.466;11.086;2023-11-19T03:13:12;6.30;99.90
1415;DHT22;702;49.466;11.086;2023-11-19T03:15:40;6.40;99.90
1415;DHT22;702;49.466;11.086;2023-11-19T03:18:09;6.40;99.90
1415;DHT22;702;49.466;11.086;2023-11-19T03:20:36;6.40;99.90
1415;DHT22;702;49.466;11.086;2023-11-19T03:23:04;6.30;99.90
1415;DHT22;702;49.466;11.086;2023-11-19T03:25:31;6.40;99.90
1415;DHT22;702;49.466;11.086;2023-11-19T03:28:00;6.40;99.90
1415;DHT22;702;49.466;11.086;2023-11-19T03:30:28;6.40;99.90
1415;DHT22;702;49.466;11.086;2023-11-19T03:32:55;6.40;99.90
1415;DHT22;702;49.466;11.086;2023-11-19T03:35:25;6.40;99.90
1415;DHT22;702;49.466;11.086;2023-11-19T03:37:53;6.40;99.90
1415;DHT22;702;49.466;11.086;2023-11-19T03:40:21;6.40;99.90
1415;DHT22;702;49.466;11.086;2023-11-19T03:42:50;6.40;99.90
1415;DHT22;702;49.466;11.086;2023-11-19T03:45:17;6.40;99.90
1415;DHT22;702;49.466;11.086;2023-11-19T03:47:44;6.40;99.90
1415;DHT22;702;49.466;11.086;2023-11-19T03:50:11;6.40;99.90
1415;DHT22;702;49.466;11.086;2023-11-19T03:52:43;6.40;99.90
1415;DHT22;702;49.466;11.086;2023-11-19T03:55:10;6.40;99.90
1415;DHT22;702;49.466;11.086;2023-11-19T03:57:38;6.40;99.90
1415;DHT22;702;49.466;11.086;2023-11-19T04:00:06;6.40;99.90
1415;DHT22;702;49.466;11.086;2023-11-19T04:02:36;6.40;99.90
1415;DHT22;702;49.466;11.086;2023-11-19T04:05:04;6.40;99.90
1415;DHT22;702;49.466;11.086;2023-11-19T04:07:32;6.50;99.90
1415;DHT22;702;49.466;11.086;2023-11-19T04:10:01;6.50;99.90
1415;DHT22;702;49.466;11.086;2023-11-19T04:12:28;6.50;99.90
1415;DHT22;702;49.466;11.086;2023-11-19T04:14:56;6.60;99.90
1415;DHT22;702;49.466;11.086;2023-11-19T04:17:23;6.70;99.90
1415;DHT22;702;49.466;11.086;2023-11-19T04:19:50;6.70;99.90
1415;DHT22;702;49.466;11.086;2023-11-19T04:22:18;6.80;99.90
1415;DHT22;702;49.466;11.086;2023-11-19T04:24:45;6.80;99.90
1415;DHT22;702;49.466;11.086;2023-11-19T04:27:14;6.90;99.90
1415;DHT22;702;49.466;11.086;2023-11-19T04:29:41;6.90;99.90
1415;DHT22;702;49.466;11.086;2023-11-19T04:32:08;6.90;99.90
1415;DHT22;702;49.466;11.086;2023-11-19T04:34:35;6.90;99.90
1415;DHT22;702;49.466;11.086;2023-11-19T04:37:03;7.00;99.90
1415;DHT22;702;49.466;11.086;2023-11-19T04:39:31;7.00;99.90
1415;DHT22;702;49.466;11.086;2023-11-19T04:41:58;7.00;99.90
1415;DHT22;702;49.466;11.086;2023-11-19T04:44:26;7.20;99.90
1415;DHT22;702;49.466;11.086;2023-11-19T04:46:55;7.20;99.90
1415;DHT22;702;49.466;11.086;2023-11-19T04:49:22;7.20;99.90
1415;DHT22;702;49.466;11.086;2023-11-19T04:51:52;7.20;99.90
1415;DHT22;702;49.466;11.086;2023-11-19T04:54:20;7.20;99.90
1415;DHT22;702;49.466;11.086;2023-11-19T04:56:47;7.30;99.90
1415;DHT22;702;49.466;11.086;2023-11-19T04:59:14;7.30;99.90
1415;DHT22;702;49.466;11.086;2023-11-19T05:01:46;7.40;99.90
1415;DHT22;702;49.466;11.086;2023-11-19T05:04:13;7.30;99.90
1415;DHT22;702;49.466;11.086;2023-11-19T05:06:41;7.30;99.90
1415;DHT22;702;49.466;11.086;2023-11-19T05:09:08;7.40;99.90
1415;DHT22;702;49.466;11.086;2023-11-19T05:11:37;7.40;99.90
1415;DHT22;702;49.466;11.086;2023-11-19T05:14:06;7.40;99.90
1415;DHT22;702;49.466;11.086;2023-11-19T05:16:34;7.40;99.90
1415;DHT22;702;49.466;11.086;2023-11-19T05:19:03;7.40;99.90
1415;DHT22;702;49.466;11.086;2023-11-19T05:21:30;7.30;99.90
1415;DHT22;702;49.466;11.086;2023-11-19T05:23:57;7.30;99.90
1415;DHT22;702;49.466;11.086;2023-11-19T05:26:25;7.30;99.90
1415;DHT22;702;49.466;11.086;2023-11-19T05:28:52;7.40;99.90
1415;DHT22;702;49.466;11.086;2023-11-19T05:31:20;7.40;99.90
1415;DHT22;702;49.466;11.086;2023-11-19T05:33:47;7.40;99.90
1415;DHT22;702;49.466;11.086;2023-11-19T05:36:15;7.40;99.90
1415;DHT22;702;49.466;11.086;2023-11-19T05:38:42;7.40;99.90
1415;DHT22;702;49.466;11.086;2023-11-19T05:41:10;7.50;99.90
1415;DHT22;702;49.466;11.086;2023-11-19T05:43:37;7.50;99.90
1415;DHT22;702;49.466;11.086;2023-11-19T05:46:06;7.40;99.90
1415;DHT22;702;49.466;11.086;2023-11-19T05:48:34;7.50;99.90
1415;DHT22;702;49.466;11.086;2023-11-19T05:51:01;7.50;99.90
1415;DHT22;702;49.466;11.086;2023-11-19T05:53:30;7.50;99.90
1415;DHT22;702;49.466;11.086;2023-11-19T05:55:57;7.60;99.90
1415;DHT22;702;49.466;11.086;2023-11-19T05:58:29;7.60;99.90
1415;DHT22;702;49.466;11.086;2023-11-19T06:00:58;7.60;99.90
1415;DHT22;702;49.466;11.086;2023-11-19T06:03:27;7.70;99.90
1415;DHT22;702;49.466;11.086;2023-11-19T06:05:54;7.60;99.90
1415;DHT22;702;49.466;11.086;2023-11-19T06:08:22;7.70;99.90
1415;DHT22;702;49.466;11.086;2023-11-19T06:10:50;7.70;99.90
1415;DHT22;702;49.466;11.086;2023-11-19T06:13:18;7.70;99.90
1415;DHT22;702;49.466;11.086;2023-11-19T06:15:45;7.80;99.90
1415;DHT22;702;49.466;11.086;2023-11-19T06:18:13;7.90;99.90
1415;DHT22;702;49.466;11.086;2023-11-19T06:20:40;7.90;99.90
1415;DHT22;702;49.466;11.086;2023-11-19T06:23:07;8.00;99.90
1415;DHT22;702;49.466;11.086;2023-11-19T06:25:34;8.00;99.90
1415;DHT22;702;49.466;11.086;2023-11-19T06:28:04;8.00;99.90
1415;DHT22;702;49.466;11.086;2023-11-19T06:30:31;8.00;99.90
1415;DHT22;702;49.466;11.086;2023-11-19T06:32:58;8.10;99.90
1415;DHT22;702;49.466;11.086;2023-11-19T06:35:26;8.20;99.90
1415;DHT22;702;49.466;11.086;2023-11-19T06:37:54;8.20;99.90
1415;DHT22;702;49.466;11.086;2023-11-19T06:40:21;8.20;99.90
1415;DHT22;702;49.466;11.086;2023-11-19T06:42:48;8.20;99.90
1415;DHT22;702;49.466;11.086;2023-11-19T06:45:19;8.30;99.90
1415;DHT22;702;49.466;11.086;2023-11-19T06:47:46;8.30;99.90
1415;DHT22;702;49.466;11.086;2023-11-19T06:50:14;8.40;99.90
1415;DHT22;702;49.466;11.086;2023-11-19T06:52:42;8.40;99.90
1415;DHT22;702;49.466;11.086;2023-11-19T06:55:09;8.40;99.90
1415;DHT22;702;49.466;11.086;2023-11-19T06:57:37;8.40;99.90
1415;DHT22;702;49.466;11.086;2023-11-19T07:00:05;8.50;99.90
1415;DHT22;702;49.466;11.086;2023-11-19T07:02:35;8.50;99.90
1415;DHT22;702;49.466;11.086;2023-11-19T07:05:03;8.50;99.90
1415;DHT22;702;49.466;11.086;2023-11-19T07:07:31;8.60;99.90
1415;DHT22;702;49.466;11.086;2023-11-19T07:09:59;8.60;99.90
1415;DHT22;702;49.466;11.086;2023-11-19T07:12:26;8.70;99.90
1415;DHT22;702;49.466;11.086;2023-11-19T07:14:54;8.70;99.90
1415;DHT22;702;49.466;11.086;2023-11-19T07:17:21;8.70;99.90
1415;DHT22;702;49.466;11.086;2023-11-19T07:19:51;8.80;99.90
1415;DHT22;702;49.466;11.086;2023-11-19T07:22:18;8.90;99.90
1415;DHT22;702;49.466;11.086;2023-11-19T07:24:45;8.90;99.90
1415;DHT22;702;49.466;11.086;2023-11-19T07:27:13;9.00;99.90
1415;DHT22;702;49.466;11.086;2023-11-19T07:29:43;9.00;99.90
1415;DHT22;702;49.466;11.086;2023-11-19T07:32:11;9.00;99.90
1415;DHT22;702;49.466;11.086;2023-11-19T07:34:39;9.00;99.90
1415;DHT22;702;49.466;11.086;2023-11-19T07:37:07;9.10;99.90
1415;DHT22;702;49.466;11.086;2023-11-19T07:39:35;9.20;99.90
1415;DHT22;702;49.466;11.086;2023-11-19T07:42:06;9.20;99.90
1415;DHT22;702;49.466;11.086;2023-11-19T07:44:34;9.30;99.90
1415;DHT22;702;49.466;11.086;2023-11-19T07:47:02;9.40;99.90
1415;DHT22;702;49.466;11.086;2023-11-19T07:49:30;9.50;99.90
1415;DHT22;702;49.466;11.086;2023-11-19T07:51:57;9.50;99.90
1415;DHT22;702;49.466;11.086;2023-11-19T07:54:26;9.50;99.90
1415;DHT22;702;49.466;11.086;2023-11-19T07:56:53;9.60;99.90
1415;DHT22;702;49.466;11.086;2023-11-19T07:59:20;9.60;99.90
1415;DHT22;702;49.466;11.086;2023-11-19T08:01:48;9.60;99.90
1415;DHT22;702;49.466;11.086;2023-11-19T08:04:15;9.70;99.90
1415;DHT22;702;49.466;11.086;2023-11-19T08:06:43;9.70;99.90
1415;DHT22;702;49.466;11.086;2023-11-19T08:09:11;9.70;99.90
1415;DHT22;702;49.466;11.086;2023-11-19T08:11:40;9.80;99.90
1415;DHT22;702;49.466;11.086;2023-11-19T08:14:08;9.80;99.90
1415;DHT22;702;49.466;11.086;2023-11-19T08:16:35;9.90;99.90
1415;DHT22;702;49.466;11.086;2023-11-19T08:19:03;10.00;99.90
1415;DHT22;702;49.466;11.086;2023-11-19T08:21:30;10.10;99.90
1415;DHT22;702;49.466;11.086;2023-11-19T08:23:57;10.20;99.90
1415;DHT22;702;49.466;11.086;2023-11-19T08:26:26;10.20;99.90
1415;DHT22;702;49.466;11.086;2023-11-19T08:28:54;10.30;99.90
1415;DHT22;702;49.466;11.086;2023-11-19T08:31:24;10.40;99.90
1415;DHT22;702;49.466;11.086;2023-11-19T08:33:52;10.40;99.90
1415;DHT22;702;49.466;11.086;2023-11-19T08:36:19;10.50;99.90
1415;DHT22;702;49.466;11.086;2023-11-19T08:38:46;10.60;99.90
1415;DHT22;702;49.466;11.086;2023-11-19T08:41:14;10.80;99.90
1415;DHT22;702;49.466;11.086;2023-11-19T08:43:43;10.80;99.90
1415;DHT22;702;49.466;11.086;2023-11-19T08:46:14;10.90;99.90
1415;DHT22;702;49.466;11.086;2023-11-19T08:48:41;10.90;99.90
1415;DHT22;702;49.466;11.086;2023-11-19T08:51:08;11.00;99.90
1415;DHT22;702;49.466;11.086;2023-11-19T08:53:36;11.00;99.90
1415;DHT22;702;49.466;11.086;2023-11-19T08:56:04;11.10;99.90
1415;DHT22;702;49.466;11.086;2023-11-19T08:58:32;11.30;99.90
1415;DHT22;702;49.466;11.086;2023-11-19T09:00:59;11.30;99.90
1415;DHT22;702;49.466;11.086;2023-11-19T09:03:28;11.40;99.90
1415;DHT22;702;49.466;11.086;2023-11-19T09:05:57;11.50;99.90
1415;DHT22;702;49.466;11.086;2023-11-19T09:08:25;11.60;99.90
1415;DHT22;702;49.466;11.086;2023-11-19T09:10:52;11.70;99.90
1415;DHT22;702;49.466;11.086;2023-11-19T09:13:19;11.80;99.90
1415;DHT22;702;49.466;11.086;2023-11-19T09:15:46;11.90;99.20
1415;DHT22;702;49.466;11.086;2023-11-19T09:18:13;12.00;99.10
1415;DHT22;702;49.466;11.086;2023-11-19T09:20:42;12.20;97.70
1415;DHT22;702;49.466;11.086;2023-11-19T09:23:10;12.40;96.60
1415;DHT22;702;49.466;11.086;2023-11-19T09:25:38;12.50;95.90
1415;DHT22;702;49.466;11.086;2023-11-19T09:28:05;12.60;95.50
1415;DHT22;702;49.466;11.086;2023-11-19T09:30:34;12.80;94.80
1415;DHT22;702;49.466;11.086;2023-11-19T09:33:01;12.80;94.10
1415;DHT22;702;49.466;11.086;2023-11-19T09:35:28;12.90;94.20
1415;DHT22;702;49.466;11.086;2023-11-19T09:37:57;13.00;92.90
1415;DHT22;702;49.466;11.086;2023-11-19T09:40:25;13.00;92.80
1415;DHT22;702;49.466;11.086;2023-11-19T09:42:54;12.80;92.70
1415;DHT22;702;49.466;11.086;2023-11-19T09:45:21;12.80;92.40
1415;DHT22;702;49.466;11.086;2023-11-19T09:47:53;12.70;92.20
1415;DHT22;702;49.466;11.086;2023-11-19T09:50:23;12.70;91.70
1415;DHT22;702;49.466;11.086;2023-11-19T09:52:50;12.60;91.40
1415;DHT22;702;49.466;11.086;2023-11-19T09:55:19;12.60;91.40
1415;DHT22;702;49.466;11.086;2023-11-19T09:57:48;12.60;91.10
1415;DHT22;702;49.466;11.086;2023-11-19T10:00:17;12.60;91.20
1415;DHT22;702;49.466;11.086;2023-11-19T10:02:47;12.60;91.00
1415;DHT22;702;49.466;11.086;2023-11-19T10:05:17;12.60;91.20
1415;DHT22;702;49.466;11.086;2023-11-19T10:07:47;12.60;91.10
1415;DHT22;702;49.466;11.086;2023-11-19T10:10:15;12.70;91.00
1415;DHT22;702;49.466;11.086;2023-11-19T10:12:46;12.90;91.00
1415;DHT22;702;49.466;11.086;2023-11-19T10:15:19;13.10;90.50
1415;DHT22;702;49.466;11.086;2023-11-19T10:17:48;13.20;90.40
1415;DHT22;702;49.466;11.086;2023-11-19T10:20:15;13.30;90.40
1415;DHT22;702;49.466;11.086;2023-11-19T10:22:43;13.40;90.30
1415;DHT22;702;49.466;11.086;2023-11-19T10:25:22;13.50;90.00
1415;DHT22;702;49.466;11.086;2023-11-19T10:27:52;13.60;89.50
1415;DHT22;702;49.466;11.086;2023-11-19T10:30:20;13.50;89.40
1415;DHT22;702;49.466;11.086;2023-11-19T10:33:03;13.30;89.50
1415;DHT22;702;49.466;11.086;2023-11-19T10:35:32;13.20;90.00
1415;DHT22;702;49.466;11.086;2023-11-19T10:38:00;13.20;90.20
1415;DHT22;702;49.466;11.086;2023-11-19T10:40:40;13.20;90.30
1415;DHT22;702;49.466;11.086;2023-11-19T10:43:09;13.10;90.60
1415;DHT22;702;49.466;11.086;2023-11-19T10:45:37;13.00;91.00
1415;DHT22;702;49.466;11.086;2023-11-19T10:48:06;13.00;92.20
1415;DHT22;702;49.466;11.086;2023-11-19T10:50:34;12.90;92.80
1415;DHT22;702;49.466;11.086;2023-11-19T10:53:02;12.70;93.50
1415;DHT22;702;49.466;11.086;2023-11-19T10:55:31;12.90;93.80
1415;DHT22;702;49.466;11.086;2023-11-19T10:58:02;13.00;92.90
1415;DHT22;702;49.466;11.086;2023-11-19T11:00:37;13.10;93.00
1415;DHT22;702;49.466;11.086;2023-11-19T11:03:11;13.10;92.50
1415;DHT22;702;49.466;11.086;2023-11-19T11:05:43;13.20;93.00
1415;DHT22;702;49.466;11.086;2023-11-19T11:08:13;13.50;92.50
1415;DHT22;702;49.466;11.086;2023-11-19T11:10:44;13.80;91.40
1415;DHT22;702;49.466;11.086;2023-11-19T11:13:14;14.00;90.90
1415;DHT22;702;49.466;11.086;2023-11-19T11:15:42;14.10;90.60
1415;DHT22;702;49.466;11.086;2023-11-19T11:18:13;14.00;90.10
1415;DHT22;702;49.466;11.086;2023-11-19T11:20:40;13.90;90.00
1415;DHT22;702;49.466;11.086;2023-11-19T11:23:28;13.70;88.30
1415;DHT22;702;49.466;11.086;2023-11-19T11:26:16;13.70;89.00
1415;DHT22;702;49.466;11.086;2023-11-19T11:29:05;13.80;88.10
1415;DHT22;702;49.466;11.086;2023-11-19T11:31:42;13.90;87.60
1415;DHT22;702;49.466;11.086;2023-11-19T11:34:44;13.90;86.80
1415;DHT22;702;49.466;11.086;2023-11-19T11:37:19;13.90;86.90
1415;DHT22;702;49.466;11.086;2023-11-19T11:39:50;13.90;86.50
1415;DHT22;702;49.466;11.086;2023-11-19T11:42:33;13.90;86.30
1415;DHT22;702;49.466;11.086;2023-11-19T11:45:03;14.20;85.90
1415;DHT22;702;49.466;11.086;2023-11-19T11:48:09;14.30;85.60
1415;DHT22;702;49.466;11.086;2023-11-19T11:50:48;14.50;85.10
1415;DHT22;702;49.466;11.086;2023-11-19T11:53:18;14.60;84.40
1415;DHT22;702;49.466;11.086;2023-11-19T11:55:55;14.40;84.90
1415;DHT22;702;49.466;11.086;2023-11-19T11:58:30;14.40;84.10
1415;DHT22;702;49.466;11.086;2023-11-19T12:01:00;14.30;84.50
1415;DHT22;702;49.466;11.086;2023-11-19T12:03:31;14.30;84.50
1415;DHT22;702;49.466;11.086;2023-11-19T12:05:59;14.20;83.80
1415;DHT22;702;49.466;11.086;2023-11-19T12:08:28;14.20;84.50
1415;DHT22;702;49.466;11.086;2023-11-19T12:10:58;14.30;84.40
1415;DHT22;702;49.466;11.086;2023-11-19T12:13:44;14.20;84.30
1415;DHT22;702;49.466;11.086;2023-11-19T12:16:14;14.20;83.60
1415;DHT22;702;49.466;11.086;2023-11-19T12:18:43;14.00;83.80
1415;DHT22;702;49.466;11.086;2023-11-19T12:21:11;13.90;83.90
1415;DHT22;702;49.466;11.086;2023-11-19T12:23:45;13.90;83.90
1415;DHT22;702;49.466;11.086;2023-11-19T12:26:33;13.80;83.80
1415;DHT22;702;49.466;11.086;2023-11-19T12:29:01;13.80;83.90
1415;DHT22;702;49.466;11.086;2023-11-19T12:31:32;13.80;84.00
1415;DHT22;702;49.466;11.086;2023-11-19T12:34:09;13.90;84.20
1415;DHT22;702;49.466;11.086;2023-11-19T12:36:39;14.30;83.80
1415;DHT22;702;49.466;11.086;2023-11-19T12:39:07;14.60;83.30
1415;DHT22;702;49.466;11.086;2023-11-19T12:41:52;14.80;82.40
1415;DHT22;702;49.466;11.086;2023-11-19T12:44:20;14.80;81.50
1415;DHT22;702;49.466;11.086;2023-11-19T12:47:00;14.80;81.90
1415;DHT22;702;49.466;11.086;2023-11-19T12:49:29;15.00;81.40
1415;DHT22;702;49.466;11.086;2023-11-19T12:51:56;15.20;80.90
1415;DHT22;702;49.466;11.086;2023-11-19T12:54:32;15.00;80.60
1415;DHT22;702;49.466;11.086;2023-11-19T12:57:01;14.70;80.50
1415;DHT22;702;49.466;11.086;2023-11-19T12:59:28;14.60;80.50
1415;DHT22;702;49.466;11.086;2023-11-19T13:01:56;14.50;79.90
1415;DHT22;702;49.466;11.086;2023-11-19T13:04:29;14.40;78.90
1415;DHT22;702;49.466;11.086;2023-11-19T13:06:57;14.30;78.90
1415;DHT22;702;49.466;11.086;2023-11-19T13:09:24;14.30;78.50
1415;DHT22;702;49.466;11.086;2023-11-19T13:11:53;14.40;78.50
1415;DHT22;702;49.466;11.086;2023-11-19T13:14:21;14.40;78.00
1415;DHT22;702;49.466;11.086;2023-11-19T13:16:49;14.40;77.80
1415;DHT22;702;49.466;11.086;2023-11-19T13:19:16;14.50;77.80
1415;DHT22;702;49.466;11.086;2023-11-19T13:21:46;14.50;77.20
1415;DHT22;702;49.466;11.086;2023-11-19T13:24:14;14.50;76.90
1415;DHT22;702;49.466;11.086;2023-11-19T13:26:41;14.60;76.80
1415;DHT22;702;49.466;11.086;2023-11-19T13:29:08;14.60;76.60
1415;DHT22;702;49.466;11.086;2023-11-19T13:31:36;14.60;76.50
1415;DHT22;702;49.466;11.086;2023-11-19T13:34:04;14.60;76.70
1415;DHT22;702;49.466;11.086;2023-11-19T13:36:33;14.70;76.40
1415;DHT22;702;49.466;11.086;2023-11-19T13:39:02;14.90;76.10
1415;DHT22;702;49.466;11.086;2023-11-19T13:41:29;15.00;75.80
1415;DHT22;702;49.466;11.086;2023-11-19T13:43:56;15.00;75.40
1415;DHT22;702;49.466;11.086;2023-11-19T13:46:24;14.80;75.80
1415;DHT22;702;49.466;11.086;2023-11-19T13:48:51;14.80;76.00
1415;DHT22;702;49.466;11.086;2023-11-19T13:51:18;14.90;76.40
1415;DHT22;702;49.466;11.086;2023-11-19T13:53:47;15.10;76.50
1415;DHT22;702;49.466;11.086;2023-11-19T13:56:15;15.10;76.50
1415;DHT22;702;49.466;11.086;2023-11-19T13:58:44;15.20;76.80
1415;DHT22;702;49.466;11.086;2023-11-19T14:01:11;15.00;76.50
1415;DHT22;702;49.466;11.086;2023-11-19T14:03:39;14.90;76.70
1415;DHT22;702;49.466;11.086;2023-11-19T14:06:07;14.80;76.40
1415;DHT22;702;49.466;11.086;2023-11-19T14:08:35;14.80;77.00
1415;DHT22;702;49.466;11.086;2023-11-19T14:11:03;14.90;77.10
1415;DHT22;702;49.466;11.086;2023-11-19T14:13:32;15.00;77.20
1415;DHT22;702;49.466;11.086;2023-11-19T14:16:00;15.00;77.00
1415;DHT22;702;49.466;11.086;2023-11-19T14:18:27;15.00;76.80
1415;DHT22;702;49.466;11.086;2023-11-19T14:20:54;14.90;76.90
1415;DHT22;702;49.466;11.086;2023-11-19T14:23:22;14.70;76.70
1415;DHT22;702;49.466;11.086;2023-11-19T14:25:50;14.40;76.00
1415;DHT22;702;49.466;11.086;2023-11-19T14:28:17;14.20;76.50
1415;DHT22;702;49.466;11.086;2023-11-19T14:30:47;14.10;76.70
1415;DHT22;702;49.466;11.086;2023-11-19T14:33:19;14.10;76.30
1415;DHT22;702;49.466;11.086;2023-11-19T14:35:46;14.00;76.10
1415;DHT22;702;49.466;11.086;2023-11-19T14:38:14;13.90;76.20
1415;DHT22;702;49.466;11.086;2023-11-19T14:40:41;13.80;76.20
1415;DHT22;702;49.466;11.086;2023-11-19T14:43:09;13.70;76.00
1415;DHT22;702;49.466;11.086;2023-11-19T14:45:36;13.70;75.80
1415;DHT22;702;49.466;11.086;2023-11-19T14:48:05;13.60;75.80
1415;DHT22;702;49.466;11.086;2023-11-19T14:50:33;13.50;75.90
1415;DHT22;702;49.466;11.086;2023-11-19T14:53:00;13.50;75.80
1415;DHT22;702;49.466;11.086;2023-11-19T14:55:27;13.70;75.40
1415;DHT22;702;49.466;11.086;2023-11-19T14:57:54;13.80;75.80
1415;DHT22;702;49.466;11.086;2023-11-19T15:00:22;14.00;75.70
1415;DHT22;702;49.466;11.086;2023-11-19T15:02:51;14.10;75.60
1415;DHT22;702;49.466;11.086;2023-11-19T15:05:19;14.20;75.60
1415;DHT22;702;49.466;11.086;2023-11-19T15:07:47;14.20;75.50
1415;DHT22;702;49.466;11.086;2023-11-19T15:10:14;14.10;75.70
1415;DHT22;702;49.466;11.086;2023-11-19T15:12:41;14.10;75.50
1415;DHT22;702;49.466;11.086;2023-11-19T15:15:09;14.00;75.90
1415;DHT22;702;49.466;11.086;2023-11-19T15:17:39;13.90;76.00
1415;DHT22;702;49.466;11.086;2023-11-19T15:20:08;13.80;76.30
1415;DHT22;702;49.466;11.086;2023-11-19T15:22:37;13.60;76.40
1415;DHT22;702;49.466;11.086;2023-11-19T15:25:05;13.60;76.70
1415;DHT22;702;49.466;11.086;2023-11-19T15:27:35;13.50;76.80
1415;DHT22;702;49.466;11.086;2023-11-19T15:30:03;13.40;76.80
1415;DHT22;702;49.466;11.086;2023-11-19T15:32:31;13.30;76.90
1415;DHT22;702;49.466;11.086;2023-11-19T15:34:58;13.30;77.30
1415;DHT22;702;49.466;11.086;2023-11-19T15:37:26;13.20;77.30
1415;DHT22;702;49.466;11.086;2023-11-19T15:39:56;13.20;77.50
1415;DHT22;702;49.466;11.086;2023-11-19T15:42:24;13.20;77.60
1415;DHT22;702;49.466;11.086;2023-11-19T15:44:51;13.10;77.50
1415;DHT22;702;49.466;11.086;2023-11-19T15:47:18;13.00;77.70
1415;DHT22;702;49.466;11.086;2023-11-19T15:49:47;12.90;78.00
1415;DHT22;702;49.466;11.086;2023-11-19T15:52:15;12.80;78.30
1415;DHT22;702;49.466;11.086;2023-11-19T15:54:42;12.70;78.80
1415;DHT22;702;49.466;11.086;2023-11-19T15:57:12;12.70;78.70
1415;DHT22;702;49.466;11.086;2023-11-19T15:59:39;12.80;78.60
1415;DHT22;702;49.466;11.086;2023-11-19T16:02:06;12.70;78.80
1415;DHT22;702;49.466;11.086;2023-11-19T16:04:34;12.70;78.60
1415;DHT22;702;49.466;11.086;2023-11-19T16:07:02;12.70;78.70
1415;DHT22;702;49.466;11.086;2023-11-19T16:09:31;12.60;79.00
1415;DHT22;702;49.466;11.086;2023-11-19T16:11:58;12.50;79.10
1415;DHT22;702;49.466;11.086;2023-11-19T16:14:26;12.40;79.20
1415;DHT22;702;49.466;11.086;2023-11-19T16:16:54;12.40;79.20
1415;DHT22;702;49.466;11.086;2023-11-19T16:19:22;12.40;79.20
1415;DHT22;702;49.466;11.086;2023-11-19T16:21:49;12.40;79.40